sensor_id;sensor_type;location;lat;lon;timestamp;pressure;altitude;pressure_sealevel;temperature;humidity
65329;BME280;51941;52.210;5.158;2022-07-01T00:02:11;101327.56;;;15.34;81.42
65329;BME280;51941;52.210;5.158;2022-07-01T00:04:38;101362.66;;;15.48;81.67
65329;BME280;51941;52.210;5.158;2022-07-01T00:07:24;101374.94;;;15.49;80.91
65329;BME280;51941;52.210;5.158;2022-07-01T00:09:52;101366.44;;;15.52;81.04
65329;BME280;51941;52.210;5.158;2022-07-01T00:12:19;101348.25;;;15.49;81.07
65329;BME280;51941;52.210;5.158;2022-07-01T00:14:46;101354.38;;;15.44;80.98
65329;BME280;51941;52.210;5.158;2022-07-01T00:17:12;101362.84;;;15.41;81.31
65329;BME280;51941;52.210;5.158;2022-07-01T00:19:39;101301.84;;;15.01;81.21
65329;BME280;51941;52.210;5.158;2022-07-01T00:22:06;101238.13;;;14.56;81.40
65329;BME280;51941;52.210;5.158;2022-07-01T00:24:33;101350.78;;;15.34;81.60
65329;BME280;51941;52.210;5.158;2022-07-01T00:27:01;101352.66;;;15.38;81.48
65329;BME280;51941;52.210;5.158;2022-07-01T00:29:28;101367.94;;;15.43;81.69
65329;BME280;51941;52.210;5.158;2022-07-01T00:31:55;101363.13;;;15.45;81.74
65329;BME280;51941;52.210;5.158;2022-07-01T00:34:21;101369.59;;;15.49;81.88
65329;BME280;51941;52.210;5.158;2022-07-01T00:36:48;101383.75;;;15.49;82.16
65329;BME280;51941;52.210;5.158;2022-07-01T00:39:15;101383.00;;;15.54;81.72
65329;BME280;51941;52.210;5.158;2022-07-01T00:41:42;101311.44;;;15.02;81.93
65329;BME280;51941;52.210;5.158;2022-07-01T00:44:16;101332.16;;;15.17;81.91
65329;BME280;51941;52.210;5.158;2022-07-01T00:46:43;101031.88;;;13.26;81.58
65329;BME280;51941;52.210;5.158;2022-07-01T00:49:10;101315.00;;;15.08;81.73
65329;BME280;51941;52.210;5.158;2022-07-01T00:51:37;101381.19;;;15.60;81.91
65329;BME280;51941;52.210;5.158;2022-07-01T00:54:05;101098.06;;;13.78;81.33
65329;BME280;51941;52.210;5.158;2022-07-01T00:56:32;101389.53;;;15.63;81.56
65329;BME280;51941;52.210;5.158;2022-07-01T00:58:59;101198.50;;;14.43;81.45
65329;BME280;51941;52.210;5.158;2022-07-01T01:01:28;101300.53;;;15.04;81.39
65329;BME280;51941;52.210;5.158;2022-07-01T01:03:55;101389.22;;;15.60;81.29
65329;BME280;51941;52.210;5.158;2022-07-01T01:06:22;101353.91;;;15.31;81.83
65329;BME280;51941;52.210;5.158;2022-07-01T01:08:49;101341.03;;;15.23;81.63
65329;BME280;51941;52.210;5.158;2022-07-01T01:11:16;101366.78;;;15.34;82.23
65329;BME280;51941;52.210;5.158;2022-07-01T01:13:43;101363.50;;;15.27;82.58
65329;BME280;51941;52.210;5.158;2022-07-01T01:16:16;101366.31;;;15.20;82.88
65329;BME280;51941;52.210;5.158;2022-07-01T01:18:45;101366.84;;;15.17;82.69
65329;BME280;51941;52.210;5.158;2022-07-01T01:21:13;101313.94;;;14.87;82.47
65329;BME280;51941;52.210;5.158;2022-07-01T01:23:40;101164.50;;;13.90;82.30
65329;BME280;51941;52.210;5.158;2022-07-01T01:26:18;101329.31;;;14.80;82.70
65329;BME280;51941;52.210;5.158;2022-07-01T01:28:45;101375.94;;;14.99;82.59
65329;BME280;51941;52.210;5.158;2022-07-01T01:31:12;101371.84;;;14.92;82.59
65329;BME280;51941;52.210;5.158;2022-07-01T01:33:39;101385.41;;;14.90;82.43
65329;BME280;51941;52.210;5.158;2022-07-01T01:36:06;101386.16;;;14.69;82.67
65329;BME280;51941;52.210;5.158;2022-07-01T01:38:35;101303.09;;;14.22;82.14
65329;BME280;51941;52.210;5.158;2022-07-01T01:41:02;101371.97;;;14.63;82.10
65329;BME280;51941;52.210;5.158;2022-07-01T01:43:29;101377.31;;;14.63;81.94
65329;BME280;51941;52.210;5.158;2022-07-01T01:46:00;101412.63;;;14.75;82.02
65329;BME280;51941;52.210;5.158;2022-07-01T01:48:27;101418.94;;;14.69;82.44
65329;BME280;51941;52.210;5.158;2022-07-01T01:50:54;101414.44;;;14.70;82.44
65329;BME280;51941;52.210;5.158;2022-07-01T01:53:21;101413.38;;;14.71;82.48
65329;BME280;51941;52.210;5.158;2022-07-01T01:55:49;101411.53;;;14.71;82.12
65329;BME280;51941;52.210;5.158;2022-07-01T01:58:16;101398.44;;;14.70;82.47
65329;BME280;51941;52.210;5.158;2022-07-01T02:00:43;101410.94;;;14.69;82.38
65329;BME280;51941;52.210;5.158;2022-07-01T02:03:10;101409.09;;;14.70;82.11
65329;BME280;51941;52.210;5.158;2022-07-01T02:05:37;101406.28;;;14.60;81.91
65329;BME280;51941;52.210;5.158;2022-07-01T02:08:04;101409.28;;;14.63;81.98
65329;BME280;51941;52.210;5.158;2022-07-01T02:10:30;101406.50;;;14.58;81.88
65329;BME280;51941;52.210;5.158;2022-07-01T02:12:59;101409.56;;;14.50;82.38
65329;BME280;51941;52.210;5.158;2022-07-01T02:15:25;101370.34;;;14.12;82.45
65329;BME280;51941;52.210;5.158;2022-07-01T02:17:52;101412.84;;;14.40;82.36
65329;BME280;51941;52.210;5.158;2022-07-01T02:20:22;101252.41;;;13.33;82.19
65329;BME280;51941;52.210;5.158;2022-07-01T02:22:49;101276.13;;;13.51;82.21
65329;BME280;51941;52.210;5.158;2022-07-01T02:25:17;101338.03;;;13.75;82.21
65329;BME280;51941;52.210;5.158;2022-07-01T02:27:43;101377.34;;;14.01;82.34
65329;BME280;51941;52.210;5.158;2022-07-01T02:30:12;101397.84;;;14.18;82.86
65329;BME280;51941;52.210;5.158;2022-07-01T02:32:39;101407.34;;;14.14;82.96
65329;BME280;51941;52.210;5.158;2022-07-01T02:35:06;101416.63;;;14.11;82.71
65329;BME280;51941;52.210;5.158;2022-07-01T02:37:33;101414.44;;;14.08;82.85
65329;BME280;51941;52.210;5.158;2022-07-01T02:40:00;101425.56;;;14.05;83.15
65329;BME280;51941;52.210;5.158;2022-07-01T02:42:27;101394.91;;;13.86;83.04
65329;BME280;51941;52.210;5.158;2022-07-01T02:45:00;101431.84;;;13.99;83.39
65329;BME280;51941;52.210;5.158;2022-07-01T02:47:32;101439.50;;;13.95;83.35
65329;BME280;51941;52.210;5.158;2022-07-01T02:49:59;101437.56;;;13.91;83.40
65329;BME280;51941;52.210;5.158;2022-07-01T02:52:25;101435.84;;;13.85;83.42
65329;BME280;51941;52.210;5.158;2022-07-01T02:54:52;101444.88;;;13.84;83.43
65329;BME280;51941;52.210;5.158;2022-07-01T02:57:20;101427.47;;;13.64;83.75
65329;BME280;51941;52.210;5.158;2022-07-01T02:59:46;101450.91;;;13.79;83.42
65329;BME280;51941;52.210;5.158;2022-07-01T03:02:13;101446.28;;;13.75;83.79
65329;BME280;51941;52.210;5.158;2022-07-01T03:04:42;101435.06;;;13.73;83.73
65329;BME280;51941;52.210;5.158;2022-07-01T03:07:09;101417.41;;;13.66;84.25
65329;BME280;51941;52.210;5.158;2022-07-01T03:09:36;101415.22;;;13.63;84.41
65329;BME280;51941;52.210;5.158;2022-07-01T03:12:05;101419.50;;;13.64;84.10
65329;BME280;51941;52.210;5.158;2022-07-01T03:14:46;101407.84;;;13.54;84.10
65329;BME280;51941;52.210;5.158;2022-07-01T03:17:13;101424.81;;;13.64;84.33
65329;BME280;51941;52.210;5.158;2022-07-01T03:19:41;101329.69;;;13.03;84.17
65329;BME280;51941;52.210;5.158;2022-07-01T03:22:08;101418.25;;;13.55;84.43
65329;BME280;51941;52.210;5.158;2022-07-01T03:24:35;101408.75;;;13.59;84.33
65329;BME280;51941;52.210;5.158;2022-07-01T03:27:02;101343.50;;;13.17;84.45
65329;BME280;51941;52.210;5.158;2022-07-01T03:29:29;101281.00;;;12.74;84.84
65329;BME280;51941;52.210;5.158;2022-07-01T03:31:56;101408.66;;;13.54;84.84
65329;BME280;51941;52.210;5.158;2022-07-01T03:34:22;101234.63;;;12.42;84.54
65329;BME280;51941;52.210;5.158;2022-07-01T03:36:51;101356.91;;;13.22;84.45
65329;BME280;51941;52.210;5.158;2022-07-01T03:39:17;101407.94;;;13.59;84.51
65329;BME280;51941;52.210;5.158;2022-07-01T03:41:44;101410.63;;;13.59;84.63
65329;BME280;51941;52.210;5.158;2022-07-01T03:44:11;101127.34;;;11.68;84.78
65329;BME280;51941;52.210;5.158;2022-07-01T03:46:38;101411.66;;;13.58;84.77
65329;BME280;51941;52.210;5.158;2022-07-01T03:49:05;101428.19;;;13.60;84.73
65329;BME280;51941;52.210;5.158;2022-07-01T03:51:33;101333.28;;;12.97;84.85
65329;BME280;51941;52.210;5.158;2022-07-01T03:54:01;101330.16;;;13.00;84.92
65329;BME280;51941;52.210;5.158;2022-07-01T03:56:46;101406.28;;;13.41;84.61
65329;BME280;51941;52.210;5.158;2022-07-01T03:59:12;101384.97;;;13.29;84.95
65329;BME280;51941;52.210;5.158;2022-07-01T04:01:39;101447.72;;;13.65;84.90
65329;BME280;51941;52.210;5.158;2022-07-01T04:04:06;101416.91;;;13.41;84.98
65329;BME280;51941;52.210;5.158;2022-07-01T04:06:33;101463.75;;;13.71;85.21
65329;BME280;51941;52.210;5.158;2022-07-01T04:09:02;101362.25;;;13.10;84.88
65329;BME280;51941;52.210;5.158;2022-07-01T04:11:29;101432.13;;;13.57;84.82
65329;BME280;51941;52.210;5.158;2022-07-01T04:13:56;101395.28;;;13.26;84.54
65329;BME280;51941;52.210;5.158;2022-07-01T04:16:23;101409.59;;;13.37;85.23
65329;BME280;51941;52.210;5.158;2022-07-01T04:18:51;101481.91;;;13.85;84.75
65329;BME280;51941;52.210;5.158;2022-07-01T04:21:19;101473.44;;;13.88;85.05
65329;BME280;51941;52.210;5.158;2022-07-01T04:24:05;101476.19;;;13.93;85.05
65329;BME280;51941;52.210;5.158;2022-07-01T04:26:32;101410.72;;;13.52;84.50
65329;BME280;51941;52.210;5.158;2022-07-01T04:28:59;101479.84;;;14.04;84.25
65329;BME280;51941;52.210;5.158;2022-07-01T04:31:25;101481.81;;;14.09;84.36
65329;BME280;51941;52.210;5.158;2022-07-01T04:33:53;101487.72;;;14.11;84.65
65329;BME280;51941;52.210;5.158;2022-07-01T04:36:21;101496.81;;;14.15;84.42
65329;BME280;51941;52.210;5.158;2022-07-01T04:38:48;101417.97;;;13.68;84.44
65329;BME280;51941;52.210;5.158;2022-07-01T04:41:16;101500.13;;;14.50;84.79
65329;BME280;51941;52.210;5.158;2022-07-01T04:44:01;101502.06;;;15.00;84.79
65329;BME280;51941;52.210;5.158;2022-07-01T04:46:28;101502.19;;;15.27;84.02
65329;BME280;51941;52.210;5.158;2022-07-01T04:48:55;101461.69;;;15.13;83.25
65329;BME280;51941;52.210;5.158;2022-07-01T04:51:22;101493.25;;;15.38;82.42
65329;BME280;51941;52.210;5.158;2022-07-01T04:53:49;101432.66;;;14.95;82.32
65329;BME280;51941;52.210;5.158;2022-07-01T04:56:17;101211.25;;;13.69;81.40
65329;BME280;51941;52.210;5.158;2022-07-01T04:58:44;101473.09;;;15.47;81.61
65329;BME280;51941;52.210;5.158;2022-07-01T05:01:10;101403.97;;;15.45;81.48
65329;BME280;51941;52.210;5.158;2022-07-01T05:03:37;101497.53;;;16.26;80.66
65329;BME280;51941;52.210;5.158;2022-07-01T05:06:04;101502.69;;;16.33;79.49
65329;BME280;51941;52.210;5.158;2022-07-01T05:08:31;101495.78;;;16.42;78.84
65329;BME280;51941;52.210;5.158;2022-07-01T05:10:58;101497.28;;;16.59;78.91
65329;BME280;51941;52.210;5.158;2022-07-01T05:13:26;101357.78;;;15.88;78.22
65329;BME280;51941;52.210;5.158;2022-07-01T05:15:53;101495.16;;;16.88;77.39
65329;BME280;51941;52.210;5.158;2022-07-01T05:18:19;101509.44;;;17.04;76.84
65329;BME280;51941;52.210;5.158;2022-07-01T05:21:04;101511.84;;;17.42;76.53
65329;BME280;51941;52.210;5.158;2022-07-01T05:23:48;101475.72;;;17.45;74.96
65329;BME280;51941;52.210;5.158;2022-07-01T05:26:14;101484.13;;;17.64;75.04
65329;BME280;51941;52.210;5.158;2022-07-01T05:28:44;101504.75;;;17.73;73.98
65329;BME280;51941;52.210;5.158;2022-07-01T05:31:14;101504.00;;;17.73;73.73
65329;BME280;51941;52.210;5.158;2022-07-01T05:33:41;101504.25;;;17.71;74.10
65329;BME280;51941;52.210;5.158;2022-07-01T05:36:09;101514.91;;;17.66;73.49
65329;BME280;51941;52.210;5.158;2022-07-01T05:38:36;101472.44;;;17.33;73.91
65329;BME280;51941;52.210;5.158;2022-07-01T05:41:03;101324.63;;;16.16;73.70
65329;BME280;51941;52.210;5.158;2022-07-01T05:43:30;101517.97;;;17.38;73.98
65329;BME280;51941;52.210;5.158;2022-07-01T05:45:58;101404.63;;;16.65;73.97
65329;BME280;51941;52.210;5.158;2022-07-01T05:48:25;101518.00;;;17.43;74.15
65329;BME280;51941;52.210;5.158;2022-07-01T05:50:53;101465.56;;;17.00;74.05
65329;BME280;51941;52.210;5.158;2022-07-01T05:53:20;101366.16;;;16.34;73.78
65329;BME280;51941;52.210;5.158;2022-07-01T05:55:47;101391.91;;;16.45;73.62
65329;BME280;51941;52.210;5.158;2022-07-01T05:58:14;101522.72;;;17.26;74.04
65329;BME280;51941;52.210;5.158;2022-07-01T06:00:42;101516.00;;;17.23;74.06
65329;BME280;51941;52.210;5.158;2022-07-01T06:03:12;101445.63;;;16.76;74.10
65329;BME280;51941;52.210;5.158;2022-07-01T06:05:40;101360.69;;;16.19;74.24
65329;BME280;51941;52.210;5.158;2022-07-01T06:08:08;101522.28;;;17.44;74.26
65329;BME280;51941;52.210;5.158;2022-07-01T06:10:35;101442.31;;;17.00;73.78
65329;BME280;51941;52.210;5.158;2022-07-01T06:13:03;101441.81;;;17.14;73.45
65329;BME280;51941;52.210;5.158;2022-07-01T06:15:30;101517.91;;;17.75;73.42
65329;BME280;51941;52.210;5.158;2022-07-01T06:17:57;101368.66;;;16.83;72.56
65329;BME280;51941;52.210;5.158;2022-07-01T06:20:26;101326.34;;;16.70;72.34
65329;BME280;51941;52.210;5.158;2022-07-01T06:22:52;101514.31;;;18.27;72.19
65329;BME280;51941;52.210;5.158;2022-07-01T06:25:19;101483.25;;;18.46;71.55
65329;BME280;51941;52.210;5.158;2022-07-01T06:27:46;101409.50;;;18.18;70.80
65329;BME280;51941;52.210;5.158;2022-07-01T06:30:13;101275.84;;;17.66;69.43
65329;BME280;51941;52.210;5.158;2022-07-01T06:32:40;101512.34;;;19.74;68.50
65329;BME280;51941;52.210;5.158;2022-07-01T06:35:08;101422.19;;;19.97;67.49
65329;BME280;51941;52.210;5.158;2022-07-01T06:37:37;101522.53;;;21.52;64.88
65329;BME280;51941;52.210;5.158;2022-07-01T06:40:05;101398.44;;;21.67;62.04
65329;BME280;51941;52.210;5.158;2022-07-01T06:42:33;101516.63;;;22.86;59.62
65329;BME280;51941;52.210;5.158;2022-07-01T06:45:00;101513.13;;;22.86;59.09
65329;BME280;51941;52.210;5.158;2022-07-01T06:47:27;101389.75;;;22.08;58.02
65329;BME280;51941;52.210;5.158;2022-07-01T06:49:54;101524.88;;;22.62;57.42
65329;BME280;51941;52.210;5.158;2022-07-01T06:52:21;101436.09;;;21.72;57.74
65329;BME280;51941;52.210;5.158;2022-07-01T06:54:49;101507.72;;;22.35;58.21
65329;BME280;51941;52.210;5.158;2022-07-01T06:57:16;101384.22;;;21.24;58.00
65329;BME280;51941;52.210;5.158;2022-07-01T06:59:43;101522.09;;;21.93;58.47
65329;BME280;51941;52.210;5.158;2022-07-01T07:02:10;101506.63;;;21.79;58.85
65329;BME280;51941;52.210;5.158;2022-07-01T07:04:37;101520.84;;;21.85;58.73
65329;BME280;51941;52.210;5.158;2022-07-01T07:07:04;101463.50;;;21.79;58.07
65329;BME280;51941;52.210;5.158;2022-07-01T07:09:31;101511.44;;;22.57;57.81
65329;BME280;51941;52.210;5.158;2022-07-01T07:11:59;101495.81;;;23.33;56.42
65329;BME280;51941;52.210;5.158;2022-07-01T07:14:26;101396.84;;;23.37;53.94
65329;BME280;51941;52.210;5.158;2022-07-01T07:16:52;101507.34;;;24.16;52.40
65329;BME280;51941;52.210;5.158;2022-07-01T07:19:26;101501.84;;;24.07;51.28
65329;BME280;51941;52.210;5.158;2022-07-01T07:21:53;101442.50;;;23.88;51.78
65329;BME280;51941;52.210;5.158;2022-07-01T07:24:21;101538.94;;;24.87;50.70
65329;BME280;51941;52.210;5.158;2022-07-01T07:26:48;101486.22;;;24.84;50.15
65329;BME280;51941;52.210;5.158;2022-07-01T07:29:16;101526.81;;;25.46;49.17
65329;BME280;51941;52.210;5.158;2022-07-01T07:31:43;101551.38;;;25.98;48.83
65329;BME280;51941;52.210;5.158;2022-07-01T07:34:10;101434.81;;;25.02;48.65
65329;BME280;51941;52.210;5.158;2022-07-01T07:36:37;101450.41;;;24.43;48.33
65329;BME280;51941;52.210;5.158;2022-07-01T07:39:03;101569.47;;;24.43;49.25
65329;BME280;51941;52.210;5.158;2022-07-01T07:41:30;101524.44;;;23.34;50.11
65329;BME280;51941;52.210;5.158;2022-07-01T07:43:57;101563.91;;;23.16;51.40
65329;BME280;51941;52.210;5.158;2022-07-01T07:46:25;101540.34;;;22.89;52.10
65329;BME280;51941;52.210;5.158;2022-07-01T07:48:52;101424.75;;;22.13;52.10
65329;BME280;51941;52.210;5.158;2022-07-01T07:51:19;101315.22;;;21.66;52.47
65329;BME280;51941;52.210;5.158;2022-07-01T07:53:48;101518.75;;;22.89;52.48
65329;BME280;51941;52.210;5.158;2022-07-01T07:56:15;101400.25;;;22.42;51.97
65329;BME280;51941;52.210;5.158;2022-07-01T07:58:42;101562.78;;;23.50;51.45
65329;BME280;51941;52.210;5.158;2022-07-01T08:01:09;101547.88;;;23.80;51.31
65329;BME280;51941;52.210;5.158;2022-07-01T08:03:38;101431.22;;;22.77;50.78
65329;BME280;51941;52.210;5.158;2022-07-01T08:06:05;101565.00;;;23.15;51.50
65329;BME280;51941;52.210;5.158;2022-07-01T08:08:32;101562.09;;;22.79;52.63
65329;BME280;51941;52.210;5.158;2022-07-01T08:10:59;101467.06;;;22.31;52.75
65329;BME280;51941;52.210;5.158;2022-07-01T08:13:26;101550.34;;;22.89;52.76
65329;BME280;51941;52.210;5.158;2022-07-01T08:15:52;101549.94;;;22.95;51.90
65329;BME280;51941;52.210;5.158;2022-07-01T08:18:19;101508.31;;;23.29;51.54
65329;BME280;51941;52.210;5.158;2022-07-01T08:20:48;101499.91;;;23.58;50.05
65329;BME280;51941;52.210;5.158;2022-07-01T08:23:18;101470.13;;;23.35;49.34
65329;BME280;51941;52.210;5.158;2022-07-01T08:25:46;101559.22;;;24.18;49.27
65329;BME280;51941;52.210;5.158;2022-07-01T08:28:13;101508.53;;;24.23;48.24
65329;BME280;51941;52.210;5.158;2022-07-01T08:30:40;101438.38;;;24.04;47.78
65329;BME280;51941;52.210;5.158;2022-07-01T08:33:07;101546.88;;;24.25;47.62
65329;BME280;51941;52.210;5.158;2022-07-01T08:35:34;101469.66;;;22.87;49.24
65329;BME280;51941;52.210;5.158;2022-07-01T08:38:02;101595.44;;;22.88;50.50
65329;BME280;51941;52.210;5.158;2022-07-01T08:40:30;101501.69;;;21.39;51.11
65329;BME280;51941;52.210;5.158;2022-07-01T08:42:58;101495.94;;;20.64;52.49
65329;BME280;51941;52.210;5.158;2022-07-01T08:45:27;101426.72;;;20.07;53.35
65329;BME280;51941;52.210;5.158;2022-07-01T08:47:56;101445.41;;;19.78;54.73
65329;BME280;51941;52.210;5.158;2022-07-01T08:50:26;101614.22;;;20.79;55.66
65329;BME280;51941;52.210;5.158;2022-07-01T08:52:53;101609.09;;;20.77;56.53
65329;BME280;51941;52.210;5.158;2022-07-01T08:55:22;101431.13;;;19.28;57.27
65329;BME280;51941;52.210;5.158;2022-07-01T08:57:49;101512.00;;;19.86;56.96
65329;BME280;51941;52.210;5.158;2022-07-01T09:00:17;101627.25;;;20.62;56.78
65329;BME280;51941;52.210;5.158;2022-07-01T09:02:53;101605.06;;;20.36;55.97
65329;BME280;51941;52.210;5.158;2022-07-01T09:05:21;101467.34;;;19.41;55.28
65329;BME280;51941;52.210;5.158;2022-07-01T09:07:49;101496.84;;;19.56;55.08
65329;BME280;51941;52.210;5.158;2022-07-01T09:10:23;101642.59;;;20.56;55.49
65329;BME280;51941;52.210;5.158;2022-07-01T09:12:50;101584.63;;;20.35;55.54
65329;BME280;51941;52.210;5.158;2022-07-01T09:15:25;101651.19;;;21.07;54.85
65329;BME280;51941;52.210;5.158;2022-07-01T09:17:54;101538.75;;;20.55;54.65
65329;BME280;51941;52.210;5.158;2022-07-01T09:20:26;101639.00;;;21.15;54.61
65329;BME280;51941;52.210;5.158;2022-07-01T09:23:01;101635.31;;;21.06;54.20
65329;BME280;51941;52.210;5.158;2022-07-01T09:25:34;101565.44;;;20.47;53.45
65329;BME280;51941;52.210;5.158;2022-07-01T09:28:07;101645.81;;;21.02;53.03
65329;BME280;51941;52.210;5.158;2022-07-01T09:30:35;101580.09;;;20.69;53.27
65329;BME280;51941;52.210;5.158;2022-07-01T09:33:13;101479.97;;;19.94;53.70
65329;BME280;51941;52.210;5.158;2022-07-01T09:35:42;101537.03;;;20.35;54.84
65329;BME280;51941;52.210;5.158;2022-07-01T09:38:11;101646.56;;;21.08;55.78
65329;BME280;51941;52.210;5.158;2022-07-01T09:40:48;101652.44;;;20.76;57.28
65329;BME280;51941;52.210;5.158;2022-07-01T09:43:16;101665.88;;;20.76;56.88
65329;BME280;51941;52.210;5.158;2022-07-01T09:45:55;101640.25;;;20.45;56.26
65329;BME280;51941;52.210;5.158;2022-07-01T09:48:23;101624.50;;;20.02;57.01
65329;BME280;51941;52.210;5.158;2022-07-01T09:50:51;101626.91;;;20.14;57.09
65329;BME280;51941;52.210;5.158;2022-07-01T09:53:18;101627.44;;;20.26;56.99
65329;BME280;51941;52.210;5.158;2022-07-01T09:55:46;101578.25;;;20.21;56.20
65329;BME280;51941;52.210;5.158;2022-07-01T09:58:13;101588.94;;;20.36;55.58
65329;BME280;51941;52.210;5.158;2022-07-01T10:00:41;101643.59;;;20.65;54.72
65329;BME280;51941;52.210;5.158;2022-07-01T10:03:08;101658.75;;;20.51;54.79
65329;BME280;51941;52.210;5.158;2022-07-01T10:05:42;101603.03;;;19.97;54.27
65329;BME280;51941;52.210;5.158;2022-07-01T10:08:19;101667.94;;;20.40;54.10
65329;BME280;51941;52.210;5.158;2022-07-01T10:11:01;101592.19;;;20.28;54.46
65329;BME280;51941;52.210;5.158;2022-07-01T10:13:34;101542.69;;;20.34;53.26
65329;BME280;51941;52.210;5.158;2022-07-01T10:16:02;101634.44;;;21.10;52.01
65329;BME280;51941;52.210;5.158;2022-07-01T10:18:30;101641.88;;;21.24;53.05
65329;BME280;51941;52.210;5.158;2022-07-01T10:20:57;101658.47;;;21.65;52.67
65329;BME280;51941;52.210;5.158;2022-07-01T10:23:38;101664.56;;;22.04;50.58
65329;BME280;51941;52.210;5.158;2022-07-01T10:26:06;101555.22;;;21.45;49.66
65329;BME280;51941;52.210;5.158;2022-07-01T10:28:44;101673.66;;;22.08;49.03
65329;BME280;51941;52.210;5.158;2022-07-01T10:31:12;101672.84;;;22.32;49.58
65329;BME280;51941;52.210;5.158;2022-07-01T10:33:46;101670.53;;;22.44;49.26
65329;BME280;51941;52.210;5.158;2022-07-01T10:36:23;101655.16;;;22.44;48.83
65329;BME280;51941;52.210;5.158;2022-07-01T10:39:14;101613.44;;;22.37;48.57
65329;BME280;51941;52.210;5.158;2022-07-01T10:41:57;101682.09;;;22.87;47.14
65329;BME280;51941;52.210;5.158;2022-07-01T10:44:25;101682.81;;;22.92;47.16
65329;BME280;51941;52.210;5.158;2022-07-01T10:46:54;101672.31;;;23.10;45.80
65329;BME280;51941;52.210;5.158;2022-07-01T10:49:53;101670.41;;;23.29;45.05
65329;BME280;51941;52.210;5.158;2022-07-01T10:52:20;101620.59;;;22.84;45.38
65329;BME280;51941;52.210;5.158;2022-07-01T10:54:49;101635.00;;;22.79;45.38
65329;BME280;51941;52.210;5.158;2022-07-01T10:57:25;101693.94;;;22.72;45.56
65329;BME280;51941;52.210;5.158;2022-07-01T11:11:38;101572.75;;;19.77;53.41
65329;BME280;51941;52.210;5.158;2022-07-01T11:14:06;101697.34;;;20.75;53.23
65329;BME280;51941;52.210;5.158;2022-07-01T11:16:33;101636.13;;;20.62;52.90
65329;BME280;51941;52.210;5.158;2022-07-01T11:19:00;101627.94;;;20.72;52.40
65329;BME280;51941;52.210;5.158;2022-07-01T11:21:27;101695.16;;;21.27;51.79
65329;BME280;51941;52.210;5.158;2022-07-01T11:23:54;101542.66;;;20.39;51.52
65329;BME280;51941;52.210;5.158;2022-07-01T11:26:22;101559.41;;;20.65;50.95
65329;BME280;51941;52.210;5.158;2022-07-01T11:28:50;101670.81;;;21.42;51.03
65329;BME280;51941;52.210;5.158;2022-07-01T11:31:28;101622.03;;;21.14;51.43
65329;BME280;51941;52.210;5.158;2022-07-01T11:33:59;101723.38;;;21.97;50.69
65329;BME280;51941;52.210;5.158;2022-07-01T11:36:29;101699.00;;;22.31;49.78
65329;BME280;51941;52.210;5.158;2022-07-01T11:39:13;101579.69;;;21.78;48.79
65329;BME280;51941;52.210;5.158;2022-07-01T11:41:56;101682.47;;;22.61;49.15
65329;BME280;51941;52.210;5.158;2022-07-01T11:44:31;101629.13;;;22.35;46.81
65329;BME280;51941;52.210;5.158;2022-07-01T11:47:00;101680.81;;;22.42;47.55
65329;BME280;51941;52.210;5.158;2022-07-01T11:49:28;101685.47;;;22.36;48.11
65329;BME280;51941;52.210;5.158;2022-07-01T11:51:56;101677.72;;;22.53;47.79
65329;BME280;51941;52.210;5.158;2022-07-01T11:54:24;101537.47;;;21.92;45.98
65329;BME280;51941;52.210;5.158;2022-07-01T11:56:52;101453.06;;;21.73;44.65
65329;BME280;51941;52.210;5.158;2022-07-01T11:59:19;101356.09;;;21.11;42.11
65329;BME280;51941;52.210;5.158;2022-07-01T12:01:54;101539.16;;;22.25;42.28
65329;BME280;51941;52.210;5.158;2022-07-01T12:04:22;101520.28;;;22.25;42.04
65329;BME280;51941;52.210;5.158;2022-07-01T12:06:50;101663.06;;;22.97;40.67
65329;BME280;51941;52.210;5.158;2022-07-01T12:09:18;101521.06;;;21.88;41.02
65329;BME280;51941;52.210;5.158;2022-07-01T12:11:46;101661.59;;;22.67;41.15
65329;BME280;51941;52.210;5.158;2022-07-01T12:14:25;101519.97;;;21.89;41.07
65329;BME280;51941;52.210;5.158;2022-07-01T12:16:55;101484.22;;;21.60;40.87
65329;BME280;51941;52.210;5.158;2022-07-01T12:19:28;101524.91;;;21.82;41.82
65329;BME280;51941;52.210;5.158;2022-07-01T12:21:57;101526.91;;;21.72;42.30
65329;BME280;51941;52.210;5.158;2022-07-01T12:24:34;101325.81;;;20.24;42.16
65329;BME280;51941;52.210;5.158;2022-07-01T12:27:19;101284.41;;;19.57;42.80
65329;BME280;51941;52.210;5.158;2022-07-01T12:29:53;101636.38;;;21.63;43.43
65329;BME280;51941;52.210;5.158;2022-07-01T12:32:36;101455.38;;;20.89;43.25
65329;BME280;51941;52.210;5.158;2022-07-01T12:38:18;101625.19;;;22.46;42.70
65329;BME280;51941;52.210;5.158;2022-07-01T12:43:59;101324.59;;;20.07;43.68
65329;BME280;51941;52.210;5.158;2022-07-01T12:46:42;101650.59;;;21.97;44.96
65329;BME280;51941;52.210;5.158;2022-07-01T12:49:38;101378.03;;;19.74;46.19
65329;BME280;51941;52.210;5.158;2022-07-01T12:52:24;101358.47;;;19.09;48.09
65329;BME280;51941;52.210;5.158;2022-07-01T12:54:57;101491.66;;;19.75;49.37
65329;BME280;51941;52.210;5.158;2022-07-01T12:57:32;101371.41;;;18.92;49.83
65329;BME280;51941;52.210;5.158;2022-07-01T12:59:59;101567.56;;;20.00;50.82
65329;BME280;51941;52.210;5.158;2022-07-01T13:02:31;101731.91;;;21.12;50.97
65329;BME280;51941;52.210;5.158;2022-07-01T13:04:58;101596.09;;;20.51;50.65
65329;BME280;51941;52.210;5.158;2022-07-01T13:10:30;101696.44;;;21.00;50.64
65329;BME280;51941;52.210;5.158;2022-07-01T13:12:58;101716.88;;;21.40;50.70
65329;BME280;51941;52.210;5.158;2022-07-01T13:15:26;101723.13;;;21.65;50.12
65329;BME280;51941;52.210;5.158;2022-07-01T13:17:53;101703.75;;;21.34;49.91
65329;BME280;51941;52.210;5.158;2022-07-01T13:20:20;101733.44;;;21.58;50.26
65329;BME280;51941;52.210;5.158;2022-07-01T13:22:47;101504.91;;;20.10;49.84